Time;durP1;ratioP1;P1;durP2;ratioP2;P2;SDS_P1;SDS_P2;PMS_P1;PMS_P2;Temp;Humidity;BMP_temperature;BMP_pressure;BME280_temperature;BME280_humidity;BME280_pressure;Samples;Min_cycle;Max_cycle;Signal;HPM_P1;HPM_P2
2022/07/14 00:02:24;;;;;;;4.00;3.00;;;;;;;20.03;64.60;98937.70;105211;1271;61325;-73
2022/07/14 00:04:50;;;;;;;2.80;2.60;;;;;;;19.98;64.75;98939.13;105263;1271;61303;-73
2022/07/14 00:07:16;;;;;;;3.80;3.10;;;;;;;19.93;64.80;98930.45;105206;1271;73480;-72
2022/07/14 00:09:42;;;;;;;3.50;2.70;;;;;;;19.88;64.84;98931.14;104949;1271;61445;-73
2022/07/14 00:12:08;;;;;;;3.70;2.70;;;;;;;19.83;64.82;98928.27;105223;1271;61360;-73
2022/07/14 00:14:34;;;;;;;4.00;3.10;;;;;;;19.79;65.11;98928.90;105192;1269;61381;-73
2022/07/14 00:17:00;;;;;;;3.50;2.70;;;;;;;19.76;65.00;98929.42;105284;1268;61329;-73
2022/07/14 00:19:27;;;;;;;4.70;3.00;;;;;;;19.74;65.17;98925.08;105113;1271;61371;-73
2022/07/14 00:21:54;;;;;;;4.20;2.90;;;;;;;19.74;65.29;98923.69;105188;1271;61418;-73
2022/07/14 00:24:20;;;;;;;3.90;3.20;;;;;;;19.74;65.17;98925.62;105166;1269;61354;-74
2022/07/14 00:26:46;;;;;;;4.40;2.70;;;;;;;19.74;65.06;98926.16;105188;1271;61278;-74
2022/07/14 00:29:12;;;;;;;3.10;2.50;;;;;;;19.75;65.22;98926.45;105212;1271;61358;-73
2022/07/14 00:31:38;;;;;;;3.70;3.30;;;;;;;19.74;65.16;98920.95;105251;1271;61278;-74
2022/07/14 00:34:04;;;;;;;4.50;3.00;;;;;;;19.74;65.34;98919.70;105213;1268;61298;-73
2022/07/14 00:36:30;;;;;;;4.00;3.20;;;;;;;19.73;65.27;98917.40;104915;1271;61331;-74
2022/07/14 00:38:57;;;;;;;4.20;3.00;;;;;;;19.73;65.24;98916.19;105257;1271;61330;-74
2022/07/14 00:41:23;;;;;;;3.90;3.00;;;;;;;19.73;65.51;98916.59;105195;1271;72702;-73
2022/07/14 00:43:50;;;;;;;4.60;3.10;;;;;;;19.72;65.49;98915.95;105219;1271;61387;-73
2022/07/14 00:46:16;;;;;;;4.70;3.60;;;;;;;19.71;65.55;98912.63;105211;1270;61278;-73
2022/07/14 00:48:42;;;;;;;4.00;3.60;;;;;;;19.70;65.74;98911.68;105227;1271;61403;-73
2022/07/14 00:51:08;;;;;;;5.70;3.30;;;;;;;19.68;65.85;98909.67;105217;1271;61386;-73
2022/07/14 00:53:34;;;;;;;6.10;3.40;;;;;;;19.68;65.90;98908.67;105183;1271;61313;-72
2022/07/14 00:56:01;;;;;;;5.00;4.00;;;;;;;19.66;65.97;98909.49;105183;1269;61428;-72
2022/07/14 00:58:27;;;;;;;5.30;3.30;;;;;;;19.66;65.96;98912.23;105203;1271;61471;-73
2022/07/14 01:00:53;;;;;;;4.90;3.60;;;;;;;19.66;66.00;98908.59;105249;1271;61331;-73
2022/07/14 01:03:19;;;;;;;4.70;3.10;;;;;;;19.67;66.43;98909.95;105469;1271;61353;-73
2022/07/14 01:05:45;;;;;;;5.80;3.20;;;;;;;19.68;66.46;98906.48;105725;1271;61182;-71
2022/07/14 01:08:11;;;;;;;5.40;3.40;;;;;;;19.68;66.41;98902.65;105759;1271;61348;-73
2022/07/14 01:10:37;;;;;;;4.60;3.10;;;;;;;19.68;66.52;98902.23;105316;1271;75028;-73
2022/07/14 01:13:05;;;;;;;4.20;2.90;;;;;;;19.68;66.49;98900.65;105208;1270;61344;-74
2022/07/14 01:15:31;;;;;;;5.00;2.80;;;;;;;19.68;66.57;98899.04;105259;1270;74048;-74
2022/07/14 01:17:58;;;;;;;3.80;2.70;;;;;;;19.68;66.65;98900.66;105200;1271;61278;-73
2022/07/14 01:20:25;;;;;;;4.40;3.10;;;;;;;19.68;66.57;98893.83;105301;1271;62052;-74
2022/07/14 01:22:51;;;;;;;4.80;3.20;;;;;;;19.67;66.44;98892.11;105337;1268;76536;-72
2022/07/14 01:25:19;;;;;;;4.80;2.80;;;;;;;19.67;66.43;98894.10;105206;1270;61303;-73
2022/07/14 01:27:45;;;;;;;4.40;3.30;;;;;;;19.67;66.49;98894.67;105247;1271;73186;-73
2022/07/14 01:30:12;;;;;;;5.10;3.20;;;;;;;19.66;66.40;98892.44;104902;1271;61246;-73
2022/07/14 01:32:38;;;;;;;5.30;2.80;;;;;;;19.64;66.52;98892.02;105196;1271;61278;-73
2022/07/14 01:35:06;;;;;;;5.70;3.00;;;;;;;19.63;66.60;98889.45;105214;1271;61278;-74
2022/07/14 01:37:33;;;;;;;3.40;2.80;;;;;;;19.61;66.62;98888.05;105203;1270;70427;-73
2022/07/14 01:40:00;;;;;;;4.80;3.20;;;;;;;19.59;66.66;98885.55;105302;1271;72716;-73
2022/07/14 01:42:26;;;;;;;3.70;3.00;;;;;;;19.59;66.55;98884.90;105221;1269;61278;-73
2022/07/14 01:44:53;;;;;;;3.70;2.90;;;;;;;19.57;66.68;98879.84;105198;1271;61304;-73
2022/07/14 01:47:19;;;;;;;3.20;2.90;;;;;;;19.56;66.67;98880.50;105168;1271;61409;-74
2022/07/14 01:49:45;;;;;;;4.40;3.10;;;;;;;19.54;67.02;98881.20;105187;1271;61310;-73
2022/07/14 01:52:10;;;;;;;4.50;2.70;;;;;;;19.52;67.25;98881.70;105181;1271;61367;-73
2022/07/14 01:54:37;;;;;;;5.70;3.00;;;;;;;19.51;67.55;98881.16;105179;1268;61759;-75
2022/07/14 01:57:03;;;;;;;4.20;3.70;;;;;;;19.50;67.71;98874.77;104911;1269;61336;-73
2022/07/14 01:59:29;;;;;;;5.40;3.30;;;;;;;19.48;67.81;98871.36;105160;1271;61334;-73
2022/07/14 02:01:55;;;;;;;4.30;3.30;;;;;;;19.47;67.86;98871.30;105246;1271;61351;-73
2022/07/14 02:04:21;;;;;;;3.30;3.00;;;;;;;19.46;67.92;98870.56;105197;1269;61358;-73
2022/07/14 02:06:49;;;;;;;4.90;3.40;;;;;;;19.46;67.83;98869.68;105188;1271;61344;-73
2022/07/14 02:09:17;;;;;;;5.40;3.50;;;;;;;19.45;68.13;98869.70;105236;1271;75178;-73
2022/07/14 02:14:29;;;;;;;5.20;3.30;;;;;;;19.43;68.34;98861.31;105202;1271;73750;-73
2022/07/14 02:16:56;;;;;;;3.90;3.30;;;;;;;19.42;68.54;98858.55;105015;1272;61336;-73
2022/07/14 02:19:26;;;;;;;5.40;4.10;;;;;;;19.40;68.76;98855.33;105177;1268;61274;-73
2022/07/14 02:21:53;;;;;;;5.10;3.70;;;;;;;19.39;68.86;98859.76;105206;1268;76250;-73
2022/07/14 02:24:20;;;;;;;4.20;3.70;;;;;;;19.37;69.23;98857.48;105253;1269;69827;-72
2022/07/14 02:26:50;;;;;;;3.40;2.90;;;;;;;19.35;69.31;98859.45;105199;1271;74348;-73
2022/07/14 02:29:17;;;;;;;5.20;3.70;;;;;;;19.33;69.35;98860.81;105235;1271;61358;-73
2022/07/14 02:31:44;;;;;;;4.40;3.70;;;;;;;19.30;69.66;98861.10;105189;1271;62032;-72
2022/07/14 02:34:11;;;;;;;3.50;3.10;;;;;;;19.27;70.20;98859.05;105229;1271;75253;-73
2022/07/14 02:36:38;;;;;;;4.30;3.90;;;;;;;19.25;71.06;98868.30;105247;1271;69360;-75
2022/07/14 02:39:04;;;;;;;4.60;3.70;;;;;;;19.21;71.67;98868.44;105269;1271;73348;-73
2022/07/14 02:41:30;;;;;;;4.90;3.90;;;;;;;19.21;72.16;98869.42;105209;1271;61282;-73
2022/07/14 02:43:56;;;;;;;4.80;4.30;;;;;;;19.19;73.21;98870.13;105197;1271;61377;-74
2022/07/14 02:46:22;;;;;;;6.60;3.70;;;;;;;19.17;73.65;98874.54;105195;1271;61297;-74
2022/07/14 02:48:49;;;;;;;8.20;4.60;;;;;;;19.14;73.67;98872.10;105169;1271;61498;-73
2022/07/14 02:51:15;;;;;;;4.80;3.60;;;;;;;19.13;73.82;98868.68;105206;1270;61316;-74
2022/07/14 02:53:42;;;;;;;5.70;4.00;;;;;;;19.11;75.57;98871.04;104901;1271;61403;-75
2022/07/14 02:56:08;;;;;;;5.20;3.80;;;;;;;19.09;76.58;98869.20;105241;1271;61301;-74
2022/07/14 02:58:34;;;;;;;5.00;4.00;;;;;;;19.10;76.02;98874.53;105200;1271;61329;-73
2022/07/14 03:01:07;;;;;;;3.80;3.40;;;;;;;19.10;76.04;98875.42;105210;1271;61365;-73
2022/07/14 03:03:37;;;;;;;4.80;3.40;;;;;;;19.11;75.86;98882.01;105182;1271;73615;-72
2022/07/14 03:06:16;;;;;;;5.70;3.50;;;;;;;19.12;75.69;98877.94;105218;1269;61281;-73
2022/07/14 03:08:43;;;;;;;4.80;3.70;;;;;;;19.13;76.56;98883.77;105211;1271;61157;-73
2022/07/14 03:11:09;;;;;;;4.20;3.60;;;;;;;19.12;76.50;98880.27;105019;1268;74910;-73
2022/07/14 03:13:35;;;;;;;5.60;3.40;;;;;;;19.11;75.93;98884.66;105216;1271;70293;-73
2022/07/14 03:16:03;;;;;;;5.70;3.50;;;;;;;19.12;75.50;98884.90;105192;1271;61293;-73
2022/07/14 03:18:29;;;;;;;4.50;3.80;;;;;;;19.15;74.97;98883.92;105256;1271;61503;-74
2022/07/14 03:20:55;;;;;;;4.50;3.10;;;;;;;19.18;74.64;98881.09;105178;1271;61310;-75
2022/07/14 03:23:22;;;;;;;4.60;3.00;;;;;;;19.20;74.87;98883.85;105218;1271;61387;-72
2022/07/14 03:25:47;;;;;;;5.20;3.40;;;;;;;19.21;75.05;98881.31;105196;1271;61655;-74
2022/07/14 03:28:14;;;;;;;5.10;3.40;;;;;;;19.22;74.80;98886.91;105176;1269;61354;-73
2022/07/14 03:30:40;;;;;;;3.80;2.60;;;;;;;19.24;74.26;98887.75;105167;1270;61354;-73
2022/07/14 03:33:06;;;;;;;4.40;3.00;;;;;;;19.27;74.20;98887.86;105203;1268;61281;-71
2022/07/14 03:35:36;;;;;;;4.30;2.70;;;;;;;19.29;73.97;98883.86;105138;1271;61460;-73
2022/07/14 03:38:02;;;;;;;4.90;2.70;;;;;;;19.32;73.90;98881.61;105220;1271;70473;-73
2022/07/14 03:40:28;;;;;;;4.20;2.70;;;;;;;19.34;73.53;98875.23;105155;1271;61310;-74
2022/07/14 03:42:54;;;;;;;3.90;2.90;;;;;;;19.37;73.60;98874.06;105177;1269;61361;-74
2022/07/14 03:45:20;;;;;;;4.20;2.70;;;;;;;19.39;73.22;98875.06;105240;1271;61268;-72
2022/07/14 03:47:46;;;;;;;5.00;2.90;;;;;;;19.43;72.86;98876.66;105182;1271;61395;-72
2022/07/14 03:50:12;;;;;;;3.60;2.70;;;;;;;19.49;72.48;98879.91;105222;1271;61300;-73
2022/07/14 03:52:38;;;;;;;3.70;2.80;;;;;;;19.56;72.03;98879.36;105190;1268;61403;-73
2022/07/14 03:55:05;;;;;;;5.00;2.80;;;;;;;19.62;71.80;98881.64;105202;1271;61285;-73
2022/07/14 03:57:31;;;;;;;3.50;2.40;;;;;;;19.67;71.48;98882.16;105178;1271;61361;-74
2022/07/14 03:59:57;;;;;;;2.60;2.40;;;;;;;19.74;71.26;98884.69;105130;1271;61291;-74
2022/07/14 04:02:23;;;;;;;3.60;2.50;;;;;;;19.80;71.27;98885.76;105241;1271;61391;-72
2022/07/14 04:04:49;;;;;;;3.10;2.50;;;;;;;19.87;70.66;98881.41;104954;1271;61367;-73
2022/07/14 04:07:15;;;;;;;3.90;2.30;;;;;;;19.96;70.59;98881.67;105216;1271;61291;-73
2022/07/14 04:09:41;;;;;;;3.80;2.30;;;;;;;20.05;70.06;98888.93;105205;1271;61390;-73
2022/07/14 04:12:07;;;;;;;2.20;2.00;;;;;;;20.16;69.72;98885.95;104912;1271;61376;-73
2022/07/14 04:14:33;;;;;;;2.90;1.90;;;;;;;20.28;69.35;98886.64;105179;1271;62667;-73
2022/07/14 04:16:59;;;;;;;2.80;2.30;;;;;;;20.42;69.05;98883.34;105043;1272;61397;-72
2022/07/14 04:19:25;;;;;;;7.30;2.30;;;;;;;20.62;68.53;98883.16;105250;1268;61278;-73
2022/07/14 04:21:51;;;;;;;5.20;1.90;;;;;;;20.73;68.03;98881.54;105090;1271;61344;-74
2022/07/14 04:24:17;;;;;;;3.00;2.00;;;;;;;20.82;67.61;98873.38;105217;1271;74922;-73
2022/07/14 04:26:43;;;;;;;3.90;2.50;;;;;;;20.90;67.06;98869.77;104953;1271;61398;-73
2022/07/14 04:29:10;;;;;;;3.70;1.80;;;;;;;20.97;66.61;98870.73;105241;1270;61391;-73
2022/07/14 04:31:36;;;;;;;4.80;2.30;;;;;;;21.05;66.29;98873.30;105185;1268;61288;-73
2022/07/14 04:34:03;;;;;;;3.00;2.00;;;;;;;21.14;65.91;98871.02;105178;1270;61364;-73
2022/07/14 04:36:30;;;;;;;2.20;1.90;;;;;;;21.25;65.23;98864.46;105222;1268;61394;-73
2022/07/14 04:38:56;;;;;;;4.00;1.90;;;;;;;21.39;64.78;98863.52;105144;1271;61384;-73
2022/07/14 04:41:24;;;;;;;3.00;1.90;;;;;;;21.54;64.48;98867.05;104964;1272;61199;-73
2022/07/14 04:43:50;;;;;;;4.20;2.00;;;;;;;21.70;64.14;98871.64;105252;1271;75332;-73
2022/07/14 04:46:16;;;;;;;2.70;1.70;;;;;;;21.96;63.84;98868.68;105200;1269;61297;-73
2022/07/14 04:54:12;;;;;;;4.00;2.00;;;;;;;22.28;62.79;98869.52;105205;1271;61296;-73
2022/07/14 04:56:38;;;;;;;2.90;1.90;;;;;;;22.34;62.72;98869.31;105238;1271;61348;-73
2022/07/14 04:59:04;;;;;;;1.70;1.60;;;;;;;22.40;62.16;98878.23;105213;1271;61175;-72
2022/07/14 05:01:30;;;;;;;3.30;2.00;;;;;;;22.47;61.75;98881.94;105162;1271;61253;-73
2022/07/14 05:03:56;;;;;;;2.90;2.20;;;;;;;22.57;61.49;98879.41;105228;1269;61316;-73
2022/07/14 05:06:23;;;;;;;3.80;2.00;;;;;;;22.64;61.22;98878.48;105231;1270;61356;-73
2022/07/14 05:08:49;;;;;;;3.80;2.30;;;;;;;22.69;61.04;98875.69;105202;1271;62666;-73
2022/07/14 05:11:16;;;;;;;4.10;2.10;;;;;;;22.75;60.92;98880.02;105212;1269;61354;-74
2022/07/14 05:13:42;;;;;;;3.90;2.30;;;;;;;22.86;60.82;98877.84;105233;1271;61284;-73
2022/07/14 05:16:08;;;;;;;2.20;1.90;;;;;;;23.03;60.50;98878.17;105211;1271;61308;-74
2022/07/14 05:18:35;;;;;;;3.10;2.00;;;;;;;23.26;60.01;98876.48;105239;1271;61256;-73
2022/07/14 05:21:00;;;;;;;2.30;2.00;;;;;;;23.49;59.53;98873.45;105249;1268;63321;-75
2022/07/14 05:23:26;;;;;;;2.80;2.20;;;;;;;23.71;58.93;98874.63;105298;1268;61383;-77
2022/07/14 05:25:54;;;;;;;1.80;1.60;;;;;;;23.90;58.53;98876.17;105048;1271;61448;-72
2022/07/14 05:28:20;;;;;;;3.40;1.90;;;;;;;24.16;58.00;98874.75;105305;1271;62189;-74
2022/07/14 05:30:46;;;;;;;4.50;1.70;;;;;;;24.29;57.40;98875.60;105294;1268;61419;-74
2022/07/14 05:33:12;;;;;;;4.60;2.10;;;;;;;24.31;56.93;98877.26;105237;1271;61909;-73
2022/07/14 05:35:38;;;;;;;2.50;1.70;;;;;;;24.25;56.70;98880.36;105219;1271;61354;-73
2022/07/14 05:38:04;;;;;;;4.10;2.40;;;;;;;24.18;56.35;98879.98;105193;1271;61262;-73
2022/07/14 05:40:30;;;;;;;2.70;2.00;;;;;;;24.17;56.65;98884.15;105200;1270;61343;-73
2022/07/14 05:42:56;;;;;;;1.70;1.50;;;;;;;24.19;56.38;98883.46;105219;1271;61374;-73
2022/07/14 05:45:22;;;;;;;3.40;1.90;;;;;;;24.20;56.10;98885.02;105251;1271;61284;-73
2022/07/14 05:47:49;;;;;;;4.40;2.40;;;;;;;24.25;56.30;98886.91;105293;1271;61373;-73
2022/07/14 05:50:15;;;;;;;2.90;2.10;;;;;;;24.32;56.32;98881.42;105672;1269;61287;-74
2022/07/14 05:52:43;;;;;;;3.50;2.20;;;;;;;24.74;55.87;98885.56;105547;1269;61281;-73
2022/07/14 05:55:10;;;;;;;5.50;1.70;;;;;;;25.81;53.89;98875.91;105268;1271;70773;-73
2022/07/14 05:57:36;;;;;;;4.60;2.00;;;;;;;26.23;53.38;98874.41;105356;1271;74873;-73
2022/07/14 06:00:03;;;;;;;2.10;1.60;;;;;;;26.51;52.66;98870.77;105250;1268;61406;-74
2022/07/14 06:02:31;;;;;;;2.50;1.90;;;;;;;27.19;51.11;98871.98;105241;1271;61367;-75
2022/07/14 06:04:57;;;;;;;4.00;1.90;;;;;;;27.75;49.78;98870.22;105220;1271;61330;-73
2022/07/14 06:07:23;;;;;;;4.50;1.70;;;;;;;28.28;48.99;98865.30;105224;1271;61377;-73
2022/07/14 06:09:50;;;;;;;2.80;1.70;;;;;;;28.74;47.79;98864.40;105212;1271;61358;-73
2022/07/14 06:12:16;;;;;;;3.90;1.80;;;;;;;29.14;47.36;98864.44;105219;1269;61316;-74
2022/07/14 06:14:43;;;;;;;4.30;1.80;;;;;;;29.52;46.67;98862.44;104976;1268;61275;-74
2022/07/14 06:17:10;;;;;;;2.30;1.70;;;;;;;29.85;44.39;98867.16;105235;1268;61159;-75
2022/07/14 06:19:36;;;;;;;2.60;1.70;;;;;;;30.08;44.20;98865.02;105215;1269;61281;-74
2022/07/14 06:22:05;;;;;;;4.90;1.60;;;;;;;30.30;42.72;98863.77;105229;1268;61269;-74
2022/07/14 06:24:33;;;;;;;2.10;1.40;;;;;;;30.33;41.90;98861.83;105319;1269;61349;-73
2022/07/14 06:26:59;;;;;;;2.70;1.30;;;;;;;30.52;41.85;98865.34;105355;1271;61291;-74
2022/07/14 06:29:25;;;;;;;4.00;2.00;;;;;;;30.67;41.59;98869.23;105249;1271;61266;-74
2022/07/14 06:31:55;;;;;;;1.90;1.40;;;;;;;30.78;40.51;98867.81;105226;1268;61300;-74
2022/07/14 06:34:24;;;;;;;3.30;1.80;;;;;;;30.81;40.05;98869.60;105248;1271;71560;-73
2022/07/14 06:36:50;;;;;;;2.00;1.60;;;;;;;30.80;39.33;98873.27;105237;1271;61244;-74
2022/07/14 06:39:17;;;;;;;2.50;1.60;;;;;;;30.77;39.48;98876.59;105241;1268;61344;-74
2022/07/14 06:41:43;;;;;;;3.20;2.00;;;;;;;30.83;39.70;98878.58;105257;1271;61351;-75
2022/07/14 06:44:09;;;;;;;4.50;1.90;;;;;;;30.90;39.35;98880.86;105276;1271;61320;-74
2022/07/14 06:46:38;;;;;;;3.20;2.00;;;;;;;30.78;38.68;98881.19;105235;1270;61357;-74
2022/07/14 06:49:03;;;;;;;3.00;1.80;;;;;;;30.69;38.86;98880.79;105277;1268;61291;-73
2022/07/14 06:51:29;;;;;;;2.70;1.70;;;;;;;30.70;38.79;98880.27;105297;1270;61278;-74
2022/07/14 06:53:56;;;;;;;2.10;1.90;;;;;;;30.69;38.99;98884.91;105224;1271;61278;-74
2022/07/14 06:56:23;;;;;;;3.60;2.20;;;;;;;30.70;38.93;98885.98;105242;1269;61245;-74
2022/07/14 06:58:48;;;;;;;3.10;2.00;;;;;;;30.77;39.38;98887.98;105111;1271;61310;-74
2022/07/14 07:01:15;;;;;;;3.00;1.70;;;;;;;30.82;38.90;98885.59;105153;1271;61361;-74
2022/07/14 07:03:41;;;;;;;3.40;2.00;;;;;;;30.77;38.19;98885.23;105188;1271;61317;-74
2022/07/14 07:08:51;;;;;;;3.90;1.90;;;;;;;30.43;37.47;98878.13;105205;1271;69281;-74
2022/07/14 07:11:17;;;;;;;3.60;1.70;;;;;;;30.35;37.98;98878.30;105194;1271;61306;-73
2022/07/14 07:13:43;;;;;;;6.00;1.60;;;;;;;30.29;38.15;98875.94;105177;1271;61307;-73
2022/07/14 07:16:09;;;;;;;4.20;2.20;;;;;;;30.39;38.88;98880.45;105236;1268;61275;-72
2022/07/14 07:18:36;;;;;;;4.30;2.00;;;;;;;30.47;38.14;98878.63;105203;1271;61301;-75
2022/07/14 07:21:04;;;;;;;3.20;2.30;;;;;;;30.36;37.45;98884.11;105271;1269;61378;-73
2022/07/14 07:23:30;;;;;;;4.90;2.60;;;;;;;30.27;37.33;98886.15;105164;1271;61291;-74
2022/07/14 07:25:56;;;;;;;4.00;2.30;;;;;;;30.07;36.86;98884.20;105234;1269;61402;-74
2022/07/14 07:28:22;;;;;;;5.40;2.20;;;;;;;29.87;37.83;98882.77;105289;1271;61371;-74
2022/07/14 07:30:49;;;;;;;3.40;2.20;;;;;;;29.86;38.10;98885.27;105197;1268;61268;-74
2022/07/14 07:33:15;;;;;;;5.10;2.60;;;;;;;29.51;37.67;98886.67;105244;1269;61470;-74
2022/07/14 07:35:45;;;;;;;2.30;2.10;;;;;;;29.16;38.52;98884.88;105236;1271;61322;-73
2022/07/14 07:38:12;;;;;;;12.80;4.10;;;;;;;28.89;38.65;98890.61;105250;1269;61287;-74
2022/07/14 07:40:38;;;;;;;3.00;2.40;;;;;;;28.60;39.52;98885.81;105306;1269;61347;-73
2022/07/14 07:43:04;;;;;;;5.50;2.80;;;;;;;28.64;40.63;98888.41;105197;1269;61287;-74
2022/07/14 07:45:30;;;;;;;4.00;2.20;;;;;;;28.71;40.31;98885.70;105204;1268;61375;-75
2022/07/14 07:47:56;;;;;;;2.40;2.00;;;;;;;28.53;39.82;98889.02;105211;1271;61362;-74
2022/07/14 07:50:22;;;;;;;3.50;1.90;;;;;;;28.35;40.40;98887.05;105208;1268;61289;-74
2022/07/14 07:52:48;;;;;;;4.30;1.80;;;;;;;28.10;40.30;98889.89;105220;1271;61307;-74
2022/07/14 07:55:15;;;;;;;3.30;1.80;;;;;;;27.82;40.41;98884.35;105242;1268;61378;-73
2022/07/14 07:57:43;;;;;;;3.90;2.10;;;;;;;27.79;41.21;98880.20;105249;1268;61355;-74
2022/07/14 08:00:11;;;;;;;2.60;1.90;;;;;;;27.99;42.20;98883.45;105225;1268;61263;-74
2022/07/14 08:02:48;;;;;;;2.40;2.20;;;;;;;28.15;42.01;98881.19;105137;1271;61393;-75
2022/07/14 08:05:18;;;;;;;3.60;2.10;;;;;;;28.23;42.10;98873.38;105228;1268;61804;-75
2022/07/14 08:07:45;;;;;;;7.70;2.00;;;;;;;28.34;42.35;98870.53;105359;1268;75226;-75
2022/07/14 08:10:12;;;;;;;2.70;1.90;;;;;;;28.43;42.61;98870.52;105209;1269;61272;-75
2022/07/14 08:12:38;;;;;;;5.40;2.20;;;;;;;28.51;42.61;98874.54;105224;1268;73311;-74
2022/07/14 08:15:30;;;;;;;3.60;2.10;;;;;;;28.65;43.00;98879.78;105219;1268;61311;-74
2022/07/14 08:17:56;;;;;;;3.90;2.00;;;;;;;28.77;42.33;98880.55;105225;1271;61217;-72
2022/07/14 08:20:22;;;;;;;5.90;2.10;;;;;;;28.84;41.64;98880.86;105193;1271;61288;-73
2022/07/14 08:22:48;;;;;;;4.00;1.90;;;;;;;28.86;41.64;98871.90;105218;1269;61370;-73
2022/07/14 08:25:15;;;;;;;2.70;2.10;;;;;;;28.89;41.43;98869.42;105246;1268;61291;-73
2022/07/14 08:27:41;;;;;;;3.80;2.00;;;;;;;28.90;40.82;98870.73;105221;1268;61297;-73
2022/07/14 08:30:07;;;;;;;2.50;1.80;;;;;;;28.86;41.60;98870.98;105234;1270;61308;-74
2022/07/14 08:32:46;;;;;;;2.70;2.10;;;;;;;28.86;40.75;98868.35;104959;1272;75356;-74
2022/07/14 08:35:16;;;;;;;2.80;1.90;;;;;;;28.68;40.70;98867.36;105084;1271;70239;-72
2022/07/14 08:37:43;;;;;;;1.90;1.80;;;;;;;28.62;41.25;98865.72;105292;1269;74253;-73
2022/07/14 08:40:18;;;;;;;2.20;1.70;;;;;;;28.53;40.56;98858.58;105218;1268;61374;-73
2022/07/14 08:42:48;;;;;;;3.00;2.20;;;;;;;28.44;40.96;98860.56;105261;1271;61903;-73
2022/07/14 08:45:16;;;;;;;4.10;2.10;;;;;;;28.48;41.92;98857.64;105009;1271;73340;-74
2022/07/14 08:47:44;;;;;;;6.60;3.10;;;;;;;28.58;41.69;98864.52;105251;1268;69262;-73
2022/07/14 08:50:14;;;;;;;3.90;2.10;;;;;;;28.60;41.27;98861.18;105176;1268;73382;-74
2022/07/14 08:52:41;;;;;;;2.00;1.90;;;;;;;28.62;41.03;98858.63;105311;1268;61350;-74
2022/07/14 08:55:11;;;;;;;2.70;2.00;;;;;;;28.59;41.37;98857.30;105280;1270;61164;-73
2022/07/14 08:57:38;;;;;;;2.20;2.00;;;;;;;28.64;41.95;98857.65;105260;1271;76209;-74
2022/07/14 09:00:32;;;;;;;4.50;2.30;;;;;;;28.77;41.73;98855.60;105190;1268;69277;-73
2022/07/14 09:02:58;;;;;;;2.50;2.20;;;;;;;28.81;41.87;98851.77;104973;1271;72597;-74
2022/07/14 09:05:24;;;;;;;2.60;1.90;;;;;;;28.90;41.90;98851.81;105212;1271;61374;-74
2022/07/14 09:07:57;;;;;;;4.10;2.10;;;;;;;29.01;41.67;98849.02;104946;1271;61377;-73
2022/07/14 09:10:26;;;;;;;3.50;2.00;;;;;;;29.04;41.58;98848.27;105191;1271;76139;-74
2022/07/14 09:13:08;;;;;;;;;;;;;;;29.14;41.97;98850.43;105217;1271;69516;-74
2022/07/14 09:15:47;;;;;;;3.50;2.30;;;;;;;29.19;41.45;98853.55;105235;1271;73259;-76
2022/07/14 09:18:28;;;;;;;5.90;2.30;;;;;;;29.18;41.18;98856.05;105196;1268;61290;-74
2022/07/14 09:20:55;;;;;;;2.60;2.30;;;;;;;29.24;41.90;98851.70;105331;1271;62099;-74
2022/07/14 09:23:28;;;;;;;2.70;2.20;;;;;;;29.27;40.90;98853.00;105223;1271;75785;-74
2022/07/14 09:26:18;;;;;;;3.50;2.20;;;;;;;29.26;41.50;98846.55;105286;1271;68903;-73
2022/07/14 09:28:48;;;;;;;3.40;2.70;;;;;;;29.35;41.63;98841.65;105300;1271;73577;-74
2022/07/14 09:31:23;;;;;;;4.00;2.00;;;;;;;29.46;41.48;98835.52;105206;1271;61300;-73
2022/07/14 09:33:51;;;;;;;3.70;2.30;;;;;;;29.53;41.43;98844.35;105211;1271;61357;-74
2022/07/14 09:36:22;;;;;;;2.40;2.10;;;;;;;29.49;40.53;98837.96;105404;1271;75227;-76
2022/07/14 09:38:48;;;;;;;2.90;2.30;;;;;;;29.51;41.37;98831.20;105265;1271;70138;-74
2022/07/14 09:41:15;;;;;;;3.00;2.00;;;;;;;29.69;41.81;98834.94;105212;1271;73386;-74
2022/07/14 09:44:15;;;;;;;3.20;2.40;;;;;;;29.86;41.14;98835.86;105220;1271;61264;-74
2022/07/14 09:46:49;;;;;;;;;;;;;;;29.83;40.54;98834.23;104979;1271;353288;-73
2022/07/14 09:49:17;;;;;;;2.10;1.90;;;;;;;29.82;40.33;98838.95;105241;1268;74701;-73
2022/07/14 09:52:05;;;;;;;4.00;2.00;;;;;;;29.82;40.39;98831.89;105363;1271;70726;-74
2022/07/14 09:54:46;;;;;;;3.70;2.40;;;;;;;29.69;40.23;98822.59;105187;1271;73428;-74
2022/07/14 09:57:13;;;;;;;7.10;2.20;;;;;;;29.48;40.91;98819.41;105214;1271;61404;-74
2022/07/14 10:00:05;;;;;;;2.50;2.20;;;;;;;29.65;40.92;98822.09;105214;1271;61298;-73
2022/07/14 10:02:31;;;;;;;2.10;2.00;;;;;;;29.75;39.52;98820.41;105231;1271;75463;-73
2022/07/14 10:05:01;;;;;;;2.50;2.10;;;;;;;29.75;39.70;98820.70;105193;1269;61278;-74
2022/07/14 10:07:40;;;;;;;4.40;2.30;;;;;;;29.71;39.23;98823.13;104972;1274;73278;-74
2022/07/14 10:10:09;;;;;;;3.30;2.40;;;;;;;29.58;39.07;98819.84;105329;1269;61399;-74
2022/07/14 10:12:41;;;;;;;2.50;2.30;;;;;;;29.49;39.50;98812.48;105233;1274;61405;-72
2022/07/14 10:15:11;;;;;;;2.10;2.00;;;;;;;29.46;39.18;98809.63;105341;1271;75323;-73
2022/07/14 10:17:40;;;;;;;3.00;2.50;;;;;;;29.41;39.48;98805.54;105309;1271;69422;-73
2022/07/14 10:20:11;;;;;;;4.40;2.00;;;;;;;29.59;39.86;98807.82;105227;1271;73286;-73
2022/07/14 10:22:38;;;;;;;2.40;2.00;;;;;;;29.60;38.65;98804.13;105268;1271;61378;-73
2022/07/14 10:25:07;;;;;;;3.40;2.00;;;;;;;29.70;39.13;98804.33;105242;1271;61289;-74
2022/07/14 10:27:39;;;;;;;3.80;2.10;;;;;;;29.88;38.90;98801.25;105369;1271;75407;-73
2022/07/14 10:30:11;;;;;;;2.80;2.00;;;;;;;30.13;38.98;98798.84;106324;1271;69414;-74
2022/07/14 10:32:47;;;;;;;4.60;2.10;;;;;;;30.41;38.04;98798.05;106893;1271;74571;-73
2022/07/14 10:35:38;;;;;;;3.90;2.10;;;;;;;30.70;38.05;98789.14;105976;1271;61331;-74
2022/07/14 10:38:14;;;;;;;5.80;2.10;;;;;;;30.99;38.27;98786.23;105240;1271;61415;-75
2022/07/14 10:40:49;;;;;;;3.10;2.40;;;;;;;31.15;37.50;98796.94;105284;1271;75255;-74
2022/07/14 10:43:18;;;;;;;6.30;2.20;;;;;;;31.05;37.43;98798.23;105259;1269;70033;-73
2022/07/14 10:45:49;;;;;;;3.40;1.90;;;;;;;31.02;36.80;98797.27;105182;1269;72316;-74
2022/07/14 10:48:33;;;;;;;2.60;2.40;;;;;;;30.83;37.16;98787.43;105172;1272;61268;-74
2022/07/14 10:51:14;;;;;;;3.40;2.10;;;;;;;30.78;37.57;98790.86;105469;1271;61182;-74
2022/07/14 10:54:13;;;;;;;3.20;2.10;;;;;;;30.82;37.48;98784.70;105340;1271;75247;-74
2022/07/14 10:56:42;;;;;;;5.60;2.40;;;;;;;31.14;37.87;98782.04;105279;1270;70365;-74
2022/07/14 10:59:27;;;;;;;2.80;1.90;;;;;;;31.44;37.87;98776.14;105322;1271;73524;-74
2022/07/14 11:02:13;;;;;;;2.60;2.10;;;;;;;31.58;37.70;98776.88;105239;1271;61298;-74
2022/07/14 11:05:12;;;;;;;3.70;1.90;;;;;;;31.63;37.77;98778.02;105233;1271;61257;-74
2022/07/14 11:08:06;;;;;;;3.70;2.10;;;;;;;31.52;36.78;98771.81;104711;1277;76533;-75
2022/07/14 11:10:36;;;;;;;2.00;1.80;;;;;;;31.13;35.97;98774.98;104695;1277;68743;-74
2022/07/14 11:13:05;;;;;;;2.30;2.00;;;;;;;30.90;35.15;98770.59;104640;1277;74150;-75
2022/07/14 11:15:43;;;;;;;5.20;1.90;;;;;;;30.79;36.40;98768.46;104691;1277;61295;-75
2022/07/14 11:18:18;;;;;;;3.50;2.20;;;;;;;30.95;35.98;98764.33;104834;1277;61862;-74
2022/07/14 11:21:01;;;;;;;3.10;2.00;;;;;;;31.13;36.94;98760.11;104712;1277;75459;-75
2022/07/14 11:23:32;;;;;;;4.40;2.80;;;;;;;31.35;36.06;98757.78;104863;1277;70266;-74
2022/07/14 11:26:21;;;;;;;4.00;2.10;;;;;;;31.28;35.63;98756.96;104695;1277;74269;-74
2022/07/14 11:28:52;;;;;;;3.00;2.20;;;;;;;31.13;35.96;98756.63;104504;1277;61198;-73
2022/07/14 11:31:23;;;;;;;2.00;1.90;;;;;;;31.00;36.04;98757.96;104624;1278;61265;-74
2022/07/14 11:36:39;;;;;;;3.00;2.00;;;;;;;31.13;37.05;98746.11;104707;1277;69543;-73
2022/07/14 11:39:20;;;;;;;2.60;2.10;;;;;;;31.30;36.20;98745.30;104874;1277;72687;-73
2022/07/14 11:42:06;;;;;;;2.10;1.90;;;;;;;31.42;35.74;98743.33;104793;1277;61302;-73
2022/07/14 11:44:35;;;;;;;4.90;2.20;;;;;;;31.71;36.28;98737.02;105098;1271;61911;-73
2022/07/14 11:47:04;;;;;;;2.40;1.80;;;;;;;31.85;35.69;98740.83;105226;1271;75236;-73
2022/07/14 11:49:34;;;;;;;2.80;2.00;;;;;;;31.83;35.05;98740.11;105260;1271;66639;-74